sensor_id;sensor_type;location;lat;lon;timestamp;pressure;altitude;pressure_sealevel;temperature;humidity
39341;BME280;25059;52.132;21.062;2022-11-30T06:34:17;101664.00;;;1.48;100.00
39341;BME280;25059;52.132;21.062;2022-11-30T06:37:01;101669.19;;;1.50;100.00
39341;BME280;25059;52.132;21.062;2022-11-30T06:39:46;101672.75;;;1.55;100.00
39341;BME280;25059;52.132;21.062;2022-11-30T06:42:32;101666.75;;;1.57;100.00
39341;BME280;25059;52.132;21.062;2022-11-30T06:45:17;101671.03;;;1.55;100.00
39341;BME280;25059;52.132;21.062;2022-11-30T06:48:02;101675.50;;;1.63;100.00
39341;BME280;25059;52.132;21.062;2022-11-30T06:50:47;101679.13;;;1.72;100.00
39341;BME280;25059;52.132;21.062;2022-11-30T06:53:32;101680.94;;;1.76;100.00
39341;BME280;25059;52.132;21.062;2022-11-30T06:56:16;101682.75;;;1.82;100.00
39341;BME280;25059;52.132;21.062;2022-11-30T06:59:02;101682.00;;;1.87;100.00
39341;BME280;25059;52.132;21.062;2022-11-30T07:01:47;101687.28;;;1.93;100.00
39341;BME280;25059;52.132;21.062;2022-11-30T07:08:20;101689.97;;;1.98;100.00
39341;BME280;25059;52.132;21.062;2022-11-30T07:11:07;101693.63;;;2.09;100.00
39341;BME280;25059;52.132;21.062;2022-11-30T07:13:54;101686.63;;;2.05;100.00
39341;BME280;25059;52.132;21.062;2022-11-30T07:16:39;101688.59;;;2.18;100.00
39341;BME280;25059;52.132;21.062;2022-11-30T07:19:36;101684.28;;;2.19;100.00
39341;BME280;25059;52.132;21.062;2022-11-30T07:22:36;101698.00;;;2.13;100.00
39341;BME280;25059;52.132;21.062;2022-11-30T07:25:25;101699.69;;;2.10;100.00
39341;BME280;25059;52.132;21.062;2022-11-30T07:29:29;101700.78;;;2.24;100.00
39341;BME280;25059;52.132;21.062;2022-11-30T07:32:16;101692.88;;;2.16;100.00
39341;BME280;25059;52.132;21.062;2022-11-30T07:36:07;101699.63;;;2.07;100.00
39341;BME280;25059;52.132;21.062;2022-11-30T07:39:37;101699.56;;;2.04;100.00
39341;BME280;25059;52.132;21.062;2022-11-30T07:42:55;101708.09;;;1.97;100.00
39341;BME280;25059;52.132;21.062;2022-11-30T07:46:20;101708.97;;;1.97;100.00
39341;BME280;25059;52.132;21.062;2022-11-30T07:49:28;101707.13;;;1.91;100.00
39341;BME280;25059;52.132;21.062;2022-11-30T07:52:13;101706.28;;;1.92;100.00
39341;BME280;25059;52.132;21.062;2022-11-30T07:58:59;101708.03;;;1.93;100.00
39341;BME280;25059;52.132;21.062;2022-11-30T08:01:45;101702.81;;;1.92;100.00
39341;BME280;25059;52.132;21.062;2022-11-30T08:04:30;101703.66;;;1.91;100.00
39341;BME280;25059;52.132;21.062;2022-11-30T08:07:19;101707.94;;;1.87;100.00
39341;BME280;25059;52.132;21.062;2022-11-30T08:10:05;101703.56;;;1.85;100.00
39341;BME280;25059;52.132;21.062;2022-11-30T08:12:51;101701.06;;;1.89;100.00
39341;BME280;25059;52.132;21.062;2022-11-30T08:15:36;101704.53;;;1.91;100.00
39341;BME280;25059;52.132;21.062;2022-11-30T08:18:22;101712.44;;;1.98;100.00
39341;BME280;25059;52.132;21.062;2022-11-30T08:21:27;101711.53;;;1.96;100.00
39341;BME280;25059;52.132;21.062;2022-11-30T08:24:13;101705.25;;;1.83;100.00
39341;BME280;25059;52.132;21.062;2022-11-30T08:26:58;101712.25;;;1.87;100.00
39341;BME280;25059;52.132;21.062;2022-11-30T08:29:43;101715.69;;;1.86;100.00
39341;BME280;25059;52.132;21.062;2022-11-30T08:32:37;101713.00;;;1.81;100.00
39341;BME280;25059;52.132;21.062;2022-11-30T08:35:22;101709.56;;;1.82;100.00
39341;BME280;25059;52.132;21.062;2022-11-30T08:38:07;101707.09;;;1.88;100.00
39341;BME280;25059;52.132;21.062;2022-11-30T08:40:56;101711.41;;;1.89;100.00
39341;BME280;25059;52.132;21.062;2022-11-30T08:43:45;101716.44;;;1.80;100.00
39341;BME280;25059;52.132;21.062;2022-11-30T08:46:30;101716.19;;;1.67;100.00
39341;BME280;25059;52.132;21.062;2022-11-30T08:49:16;101714.38;;;1.63;100.00
39341;BME280;25059;52.132;21.062;2022-11-30T08:52:00;101708.34;;;1.64;100.00
39341;BME280;25059;52.132;21.062;2022-11-30T08:54:51;101715.19;;;1.60;100.00
39341;BME280;25059;52.132;21.062;2022-11-30T08:57:39;101714.44;;;1.66;100.00
39341;BME280;25059;52.132;21.062;2022-11-30T09:04:05;101710.03;;;1.61;100.00
39341;BME280;25059;52.132;21.062;2022-11-30T09:06:50;101710.84;;;1.59;100.00
39341;BME280;25059;52.132;21.062;2022-11-30T09:10:00;101724.69;;;1.59;100.00
39341;BME280;25059;52.132;21.062;2022-11-30T09:12:52;101721.09;;;1.53;100.00
39341;BME280;25059;52.132;21.062;2022-11-30T09:19:41;101723.47;;;1.42;100.00
39341;BME280;25059;52.132;21.062;2022-11-30T09:22:30;101720.94;;;1.45;100.00
39341;BME280;25059;52.132;21.062;2022-11-30T09:25:15;101727.84;;;1.45;100.00
39341;BME280;25059;52.132;21.062;2022-11-30T09:27:59;101717.38;;;1.40;100.00
39341;BME280;25059;52.132;21.062;2022-11-30T09:30:45;101719.25;;;1.47;100.00
39341;BME280;25059;52.132;21.062;2022-11-30T09:33:30;101723.59;;;1.48;100.00
39341;BME280;25059;52.132;21.062;2022-11-30T09:36:42;101727.09;;;1.50;100.00
39341;BME280;25059;52.132;21.062;2022-11-30T09:39:36;101724.53;;;1.52;100.00
39341;BME280;25059;52.132;21.062;2022-11-30T09:45:24;101724.66;;;1.58;100.00
39341;BME280;25059;52.132;21.062;2022-11-30T09:51:44;101722.97;;;1.60;100.00
39341;BME280;25059;52.132;21.062;2022-11-30T11:03:47;101715.44;;;1.74;100.00
39341;BME280;25059;52.132;21.062;2022-11-30T11:17:30;101703.50;;;1.82;100.00
39341;BME280;25059;52.132;21.062;2022-11-30T11:21:36;101705.50;;;1.97;100.00
39341;BME280;25059;52.132;21.062;2022-11-30T11:24:41;101707.34;;;2.04;100.00
39341;BME280;25059;52.132;21.062;2022-11-30T12:38:36;101703.59;;;1.86;100.00
39341;BME280;25059;52.132;21.062;2022-11-30T12:42:00;101714.75;;;1.82;100.00
39341;BME280;25059;52.132;21.062;2022-11-30T12:45:51;101708.66;;;1.80;100.00
39341;BME280;25059;52.132;21.062;2022-11-30T13:02:55;101703.91;;;2.05;100.00
39341;BME280;25059;52.132;21.062;2022-11-30T13:06:43;101710.00;;;2.07;100.00
39341;BME280;25059;52.132;21.062;2022-11-30T13:16:47;101709.84;;;1.98;100.00
39341;BME280;25059;52.132;21.062;2022-11-30T13:20:02;101709.91;;;2.02;100.00
39341;BME280;25059;52.132;21.062;2022-11-30T13:23:20;101705.59;;;2.01;100.00
39341;BME280;25059;52.132;21.062;2022-11-30T13:26:48;101708.28;;;2.07;100.00
39341;BME280;25059;52.132;21.062;2022-11-30T13:30:04;101697.97;;;2.10;100.00
39341;BME280;25059;52.132;21.062;2022-11-30T13:45:33;101707.47;;;2.10;100.00
39341;BME280;25059;52.132;21.062;2022-11-30T13:48:45;101706.50;;;2.05;100.00
39341;BME280;25059;52.132;21.062;2022-11-30T13:51:39;101702.22;;;2.07;100.00
39341;BME280;25059;52.132;21.062;2022-11-30T14:03:30;101709.22;;;2.12;100.00
39341;BME280;25059;52.132;21.062;2022-11-30T14:10:00;101707.44;;;2.08;100.00
39341;BME280;25059;52.132;21.062;2022-11-30T14:12:59;101713.72;;;2.22;100.00
39341;BME280;25059;52.132;21.062;2022-11-30T14:18:36;101721.41;;;2.16;100.00
39341;BME280;25059;52.132;21.062;2022-11-30T14:21:38;101719.59;;;2.12;100.00
39341;BME280;25059;52.132;21.062;2022-11-30T14:29:24;101718.53;;;2.00;100.00
39341;BME280;25059;52.132;21.062;2022-11-30T14:33:05;101724.41;;;1.91;100.00
39341;BME280;25059;52.132;21.062;2022-11-30T14:36:01;101727.91;;;1.93;100.00
39341;BME280;25059;52.132;21.062;2022-11-30T14:38:49;101721.78;;;1.89;100.00
39341;BME280;25059;52.132;21.062;2022-11-30T14:41:34;101714.84;;;1.88;100.00
39341;BME280;25059;52.132;21.062;2022-11-30T14:44:18;101719.94;;;1.82;100.00
39341;BME280;25059;52.132;21.062;2022-11-30T14:47:30;101716.50;;;1.83;100.00
39341;BME280;25059;52.132;21.062;2022-11-30T14:53:51;101720.88;;;1.87;100.00
39341;BME280;25059;52.132;21.062;2022-11-30T14:56:47;101733.03;;;1.90;100.00
39341;BME280;25059;52.132;21.062;2022-11-30T14:59:43;101728.66;;;1.87;100.00
39341;BME280;25059;52.132;21.062;2022-11-30T15:02:35;101731.25;;;1.87;100.00
39341;BME280;25059;52.132;21.062;2022-11-30T15:05:28;101734.72;;;1.88;100.00
39341;BME280;25059;52.132;21.062;2022-11-30T15:08:15;101729.72;;;1.97;100.00
39341;BME280;25059;52.132;21.062;2022-11-30T15:11:04;101733.31;;;2.05;100.00
39341;BME280;25059;52.132;21.062;2022-11-30T15:13:53;101728.19;;;2.08;100.00
39341;BME280;25059;52.132;21.062;2022-11-30T15:16:46;101727.56;;;2.21;100.00
39341;BME280;25059;52.132;21.062;2022-11-30T15:19:37;101728.41;;;2.20;100.00
39341;BME280;25059;52.132;21.062;2022-11-30T15:22:33;101727.38;;;2.11;100.00
39341;BME280;25059;52.132;21.062;2022-11-30T15:25:20;101726.56;;;2.15;100.00
39341;BME280;25059;52.132;21.062;2022-11-30T15:28:31;101725.81;;;2.20;100.00
39341;BME280;25059;52.132;21.062;2022-11-30T15:31:17;101732.00;;;2.29;100.00
39341;BME280;25059;52.132;21.062;2022-11-30T15:34:02;101740.00;;;2.42;100.00
39341;BME280;25059;52.132;21.062;2022-11-30T15:36:57;101739.16;;;2.42;100.00
39341;BME280;25059;52.132;21.062;2022-11-30T15:39:53;101737.38;;;2.39;100.00
39341;BME280;25059;52.132;21.062;2022-11-30T15:42:48;101739.91;;;2.36;100.00
39341;BME280;25059;52.132;21.062;2022-11-30T15:45:34;101738.03;;;2.28;100.00
39341;BME280;25059;52.132;21.062;2022-11-30T15:48:33;101746.63;;;2.23;100.00
39341;BME280;25059;52.132;21.062;2022-11-30T15:51:22;101735.16;;;2.11;100.00
39341;BME280;25059;52.132;21.062;2022-11-30T15:54:07;101737.75;;;2.11;100.00
39341;BME280;25059;52.132;21.062;2022-11-30T15:56:55;101742.88;;;2.08;100.00
39341;BME280;25059;52.132;21.062;2022-11-30T16:00:20;101738.41;;;2.01;100.00
39341;BME280;25059;52.132;21.062;2022-11-30T16:03:08;101740.13;;;2.00;100.00
39341;BME280;25059;52.132;21.062;2022-11-30T16:05:57;101741.84;;;2.00;100.00
39341;BME280;25059;52.132;21.062;2022-11-30T16:08:45;101746.19;;;2.01;100.00
39341;BME280;25059;52.132;21.062;2022-11-30T16:11:32;101738.38;;;1.98;100.00
39341;BME280;25059;52.132;21.062;2022-11-30T16:14:17;101739.09;;;1.90;100.00
39341;BME280;25059;52.132;21.062;2022-11-30T16:17:01;101742.56;;;1.91;100.00
39341;BME280;25059;52.132;21.062;2022-11-30T16:19:47;101734.69;;;1.86;100.00
39341;BME280;25059;52.132;21.062;2022-11-30T16:22:32;101740.69;;;1.84;100.00
39341;BME280;25059;52.132;21.062;2022-11-30T16:25:22;101738.09;;;1.84;100.00
39341;BME280;25059;52.132;21.062;2022-11-30T16:28:32;101738.97;;;1.84;100.00
39341;BME280;25059;52.132;21.062;2022-11-30T16:31:19;101738.16;;;1.87;100.00
39341;BME280;25059;52.132;21.062;2022-11-30T16:34:03;101738.16;;;1.87;100.00
39341;BME280;25059;52.132;21.062;2022-11-30T16:36:49;101736.44;;;1.87;100.00
39341;BME280;25059;52.132;21.062;2022-11-30T16:39:34;101732.97;;;1.87;100.00
39341;BME280;25059;52.132;21.062;2022-11-30T16:42:19;101741.59;;;1.86;100.00
39341;BME280;25059;52.132;21.062;2022-11-30T16:45:04;101741.41;;;1.75;100.00
39341;BME280;25059;52.132;21.062;2022-11-30T16:47:49;101753.53;;;1.78;100.00
39341;BME280;25059;52.132;21.062;2022-11-30T16:50:36;101754.38;;;1.77;100.00
39341;BME280;25059;52.132;21.062;2022-11-30T16:53:20;101750.84;;;1.72;100.00
39341;BME280;25059;52.132;21.062;2022-11-30T16:56:09;101752.56;;;1.71;100.00
39341;BME280;25059;52.132;21.062;2022-11-30T16:58:53;101755.13;;;1.70;100.00
39341;BME280;25059;52.132;21.062;2022-11-30T17:01:40;101759.50;;;1.74;100.00
39341;BME280;25059;52.132;21.062;2022-11-30T17:04:26;101767.56;;;1.87;100.00
39341;BME280;25059;52.132;21.062;2022-11-30T17:07:13;101764.19;;;1.91;100.00
39341;BME280;25059;52.132;21.062;2022-11-30T17:09:57;101766.91;;;1.99;100.00
39341;BME280;25059;52.132;21.062;2022-11-30T17:12:42;101767.75;;;1.98;100.00
39341;BME280;25059;52.132;21.062;2022-11-30T17:15:26;101765.06;;;1.92;100.00
39341;BME280;25059;52.132;21.062;2022-11-30T17:18:11;101767.44;;;1.81;100.00
39341;BME280;25059;52.132;21.062;2022-11-30T17:20:56;101769.94;;;1.77;100.00
39341;BME280;25059;52.132;21.062;2022-11-30T17:23:41;101774.34;;;1.81;100.00
39341;BME280;25059;52.132;21.062;2022-11-30T17:26:26;101769.09;;;1.78;100.00
39341;BME280;25059;52.132;21.062;2022-11-30T17:29:11;101778.56;;;1.76;100.00
39341;BME280;25059;52.132;21.062;2022-11-30T17:31:56;101782.16;;;1.82;100.00
39341;BME280;25059;52.132;21.062;2022-11-30T17:34:40;101779.59;;;1.84;100.00
39341;BME280;25059;52.132;21.062;2022-11-30T17:37:25;101777.84;;;1.83;100.00
39341;BME280;25059;52.132;21.062;2022-11-30T17:40:10;101776.00;;;1.77;100.00
39341;BME280;25059;52.132;21.062;2022-11-30T17:42:56;101775.13;;;1.77;100.00
39341;BME280;25059;52.132;21.062;2022-11-30T17:45:40;101774.25;;;1.76;100.00
39341;BME280;25059;52.132;21.062;2022-11-30T17:48:27;101781.19;;;1.77;100.00
39341;BME280;25059;52.132;21.062;2022-11-30T17:51:14;101778.63;;;1.79;100.00
39341;BME280;25059;52.132;21.062;2022-11-30T17:53:59;101777.75;;;1.78;100.00
39341;BME280;25059;52.132;21.062;2022-11-30T17:56:43;101779.63;;;1.85;100.00
39341;BME280;25059;52.132;21.062;2022-11-30T17:59:28;101776.19;;;1.86;100.00
39341;BME280;25059;52.132;21.062;2022-11-30T18:02:12;101778.63;;;1.79;100.00
39341;BME280;25059;52.132;21.062;2022-11-30T18:04:57;101778.66;;;1.80;100.00
39341;BME280;25059;52.132;21.062;2022-11-30T18:07:42;101775.22;;;1.81;100.00
39341;BME280;25059;52.132;21.062;2022-11-30T18:10:27;101777.09;;;1.88;100.00
39341;BME280;25059;52.132;21.062;2022-11-30T18:13:12;101778.88;;;1.91;100.00
39341;BME280;25059;52.132;21.062;2022-11-30T18:18:50;101783.16;;;1.89;100.00
39341;BME280;25059;52.132;21.062;2022-11-30T18:21:37;101782.41;;;1.94;100.00
39341;BME280;25059;52.132;21.062;2022-11-30T18:24:23;101785.88;;;1.97;100.00
39341;BME280;25059;52.132;21.062;2022-11-30T18:27:07;101780.78;;;2.01;100.00
39341;BME280;25059;52.132;21.062;2022-11-30T18:29:52;101785.84;;;1.95;100.00
39341;BME280;25059;52.132;21.062;2022-11-30T18:32:38;101785.13;;;2.02;100.00
39341;BME280;25059;52.132;21.062;2022-11-30T18:35:22;101795.53;;;2.04;100.00
39341;BME280;25059;52.132;21.062;2022-11-30T18:38:06;101792.03;;;2.02;100.00
39341;BME280;25059;52.132;21.062;2022-11-30T18:40:51;101787.03;;;2.11;100.00
39341;BME280;25059;52.132;21.062;2022-11-30T18:43:36;101785.41;;;2.17;100.00
39341;BME280;25059;52.132;21.062;2022-11-30T18:46:21;101789.69;;;2.15;100.00
39341;BME280;25059;52.132;21.062;2022-11-30T18:49:07;101784.59;;;2.20;100.00
39341;BME280;25059;52.132;21.062;2022-11-30T18:51:52;101792.44;;;2.23;100.00
39341;BME280;25059;52.132;21.062;2022-11-30T18:54:40;101790.72;;;2.23;100.00
39341;BME280;25059;52.132;21.062;2022-11-30T18:57:25;101786.47;;;2.27;100.00
39341;BME280;25059;52.132;21.062;2022-11-30T19:00:11;101777.84;;;2.30;100.00
39341;BME280;25059;52.132;21.062;2022-11-30T19:02:55;101784.00;;;2.35;100.00
39341;BME280;25059;52.132;21.062;2022-11-30T19:05:40;101785.69;;;2.33;100.00
39341;BME280;25059;52.132;21.062;2022-11-30T19:08:25;101783.88;;;2.29;100.00
39341;BME280;25059;52.132;21.062;2022-11-30T19:11:11;101788.25;;;2.31;100.00
39341;BME280;25059;52.132;21.062;2022-11-30T19:13:56;101784.78;;;2.31;100.00
39341;BME280;25059;52.132;21.062;2022-11-30T19:16:42;101784.78;;;2.31;100.00
39341;BME280;25059;52.132;21.062;2022-11-30T19:19:27;101794.31;;;2.32;100.00
39341;BME280;25059;52.132;21.062;2022-11-30T19:22:11;101789.19;;;2.35;100.00
39341;BME280;25059;52.132;21.062;2022-11-30T19:24:56;101795.28;;;2.37;100.00
39341;BME280;25059;52.132;21.062;2022-11-30T19:27:44;101794.31;;;2.32;100.00
39341;BME280;25059;52.132;21.062;2022-11-30T19:30:29;101793.56;;;2.37;100.00
39341;BME280;25059;52.132;21.062;2022-11-30T19:33:13;101792.69;;;2.37;100.00
39341;BME280;25059;52.132;21.062;2022-11-30T19:35:59;101794.44;;;2.38;100.00
39341;BME280;25059;52.132;21.062;2022-11-30T19:38:47;101793.41;;;2.30;100.00
39341;BME280;25059;52.132;21.062;2022-11-30T19:41:36;101794.31;;;2.32;100.00
39341;BME280;25059;52.132;21.062;2022-11-30T19:44:21;101796.00;;;2.28;100.00
39341;BME280;25059;52.132;21.062;2022-11-30T19:47:05;101802.09;;;2.32;100.00
39341;BME280;25059;52.132;21.062;2022-11-30T19:49:50;101799.56;;;2.35;100.00
